Terminal Aerodrome Forecast
Issued by NWS

Home | Current Version | Previous Version | Text Only | Print | Product List | Glossary On
Versions: 1 2 3 4 5 6 7 8 9 10 11 12 13 14
000
FTUS44 KSJT 192325
TAFJCT
TAF
KJCT 192325Z 2000/2024 14010KT P6SM BKN250
     FM200800 15009KT P6SM VCSH BKN015
     FM201700 17011G18KT P6SM BKN025
     FM202200 17012KT P6SM BKN040=

USA.gov is the U.S. government's official web portal to all federal, state and local government web resources and services.